createdAt,value
2022-12-05T00:03:31.917Z,2.40
2022-12-05T00:08:34.354Z,2.50
2022-12-05T00:13:36.715Z,2.40
2022-12-05T00:18:39.947Z,2.30
2022-12-05T00:23:43.306Z,2.30
2022-12-05T00:28:46.056Z,2.30
2022-12-05T00:33:49.160Z,2.30
2022-12-05T00:38:52.063Z,2.30
2022-12-05T00:43:58.807Z,2.30
2022-12-05T00:49:03.263Z,2.30
2022-12-05T00:54:09.003Z,2.30
2022-12-05T00:59:19.559Z,2.30
2022-12-05T01:04:24.569Z,2.30
2022-12-05T01:09:27.374Z,2.20
2022-12-05T01:14:29.762Z,2.30
2022-12-05T01:19:33.263Z,2.30
2022-12-05T01:24:36.353Z,2.20
2022-12-05T01:29:38.743Z,2.20
2022-12-05T01:34:41.137Z,2.30
2022-12-05T01:39:43.647Z,2.20
2022-12-05T01:44:49.009Z,2.20
2022-12-05T01:49:51.426Z,2.20
2022-12-05T01:54:58.156Z,2.20
2022-12-05T02:00:10.543Z,2.20
2022-12-05T02:05:25.538Z,2.20
2022-12-05T02:10:30.631Z,2.20
2022-12-05T02:15:44.206Z,2.20
2022-12-05T02:21:08.525Z,2.20
2022-12-05T02:26:35.552Z,2.20
2022-12-05T02:32:01.510Z,2.20
2022-12-05T02:37:18.001Z,2.20
2022-12-05T02:42:41.770Z,2.20
2022-12-05T02:47:51.673Z,2.20
2022-12-05T02:52:58.453Z,2.20
2022-12-05T02:58:05.757Z,2.20
2022-12-05T03:03:21.187Z,2.10
2022-12-05T03:08:27.143Z,2.20
2022-12-05T03:13:41.234Z,2.20
2022-12-05T03:18:51.760Z,2.50
2022-12-05T03:24:00.563Z,2.20
2022-12-05T03:29:25.533Z,2.10
2022-12-05T03:34:55.231Z,2.10
2022-12-05T03:40:23.625Z,2.10
2022-12-05T03:45:39.744Z,2.10
2022-12-05T03:50:46.547Z,2.10
2022-12-05T03:56:03.438Z,2.10
2022-12-05T04:01:08.549Z,2.10
2022-12-05T04:06:30.602Z,2.10
2022-12-05T04:11:37.749Z,2.10
2022-12-05T04:17:03.968Z,2.10
2022-12-05T04:22:07.027Z,2.00
2022-12-05T04:27:30.764Z,2.10
2022-12-05T04:32:53.376Z,2.10
2022-12-05T04:38:02.237Z,2.20
2022-12-05T04:43:06.351Z,2.10
2022-12-05T04:48:14.105Z,2.10
2022-12-05T04:53:17.971Z,2.10
2022-12-05T04:58:23.297Z,2.10
2022-12-05T05:03:31.691Z,2.00
2022-12-05T05:08:34.298Z,2.00
2022-12-05T05:13:36.773Z,2.10
2022-12-05T05:18:39.157Z,2.00
2022-12-05T05:23:41.661Z,2.00
2022-12-05T05:28:44.311Z,1.90
2022-12-05T05:33:51.185Z,1.90
2022-12-05T05:38:56.057Z,1.90
2022-12-05T05:43:59.210Z,1.90
2022-12-05T05:49:01.893Z,1.90
2022-12-05T05:54:04.413Z,2.00
2022-12-05T05:59:06.844Z,1.90
2022-12-05T06:04:09.332Z,1.90
2022-12-05T06:09:12.192Z,1.90
2022-12-05T06:14:14.639Z,1.90
2022-12-05T06:19:17.263Z,1.90
2022-12-05T06:24:19.711Z,2.00
2022-12-05T06:29:25.691Z,1.90
2022-12-05T06:34:29.793Z,1.90
2022-12-05T06:39:32.548Z,1.90
2022-12-05T06:44:34.861Z,1.80
2022-12-05T06:49:38.212Z,1.80
2022-12-05T06:54:40.874Z,1.80
2022-12-05T06:59:43.301Z,1.80
2022-12-05T07:04:45.805Z,1.90
2022-12-05T07:09:54.468Z,1.90
2022-12-05T07:14:56.871Z,1.90
2022-12-05T07:19:59.590Z,1.90
2022-12-05T07:25:02.215Z,1.90
2022-12-05T07:30:06.111Z,1.90
2022-12-05T07:35:08.802Z,1.90
2022-12-05T07:40:11.978Z,1.90
2022-12-05T07:45:14.597Z,1.90
2022-12-05T07:50:17.129Z,2.00
2022-12-05T07:55:19.586Z,2.00
2022-12-05T08:00:22.315Z,2.00
2022-12-05T08:05:24.712Z,2.10
2022-12-05T08:10:27.535Z,2.00
2022-12-05T08:15:29.920Z,2.10
2022-12-05T08:20:35.066Z,2.10
2022-12-05T08:25:37.591Z,2.10
2022-12-05T08:30:40.017Z,2.10
2022-12-05T08:35:42.468Z,2.20
2022-12-05T08:40:47.548Z,2.20
2022-12-05T08:45:53.645Z,2.40
2022-12-05T08:50:56.661Z,2.20
2022-12-05T08:56:06.151Z,2.30
2022-12-05T09:01:17.347Z,2.30
2022-12-05T09:06:22.603Z,2.40
2022-12-05T09:11:28.162Z,2.40
2022-12-05T09:16:38.396Z,2.40
2022-12-05T09:21:43.010Z,2.50
2022-12-05T09:26:45.914Z,2.70
2022-12-05T09:31:51.635Z,2.40
2022-12-05T09:37:10.327Z,2.50
2022-12-05T09:42:31.339Z,2.50
2022-12-05T09:47:45.857Z,2.50
2022-12-05T09:53:04.171Z,2.50
2022-12-05T09:58:20.783Z,2.50
2022-12-05T10:03:43.881Z,2.50
2022-12-05T10:09:11.989Z,2.60
2022-12-05T10:14:45.937Z,2.50
2022-12-05T10:19:52.029Z,2.50
2022-12-05T10:25:03.348Z,2.50
2022-12-05T10:30:16.106Z,2.50
2022-12-05T10:35:20.429Z,2.50
2022-12-05T10:40:23.815Z,2.60
2022-12-05T10:45:26.477Z,2.60
2022-12-05T10:50:32.640Z,2.60
2022-12-05T10:55:41.219Z,3.00
2022-12-05T11:00:51.735Z,3.10
2022-12-05T11:05:57.422Z,2.70
2022-12-05T11:11:19.050Z,2.70
2022-12-05T11:16:32.932Z,2.80
2022-12-05T11:21:42.789Z,2.80
2022-12-05T11:26:45.800Z,2.80
2022-12-05T11:31:52.357Z,2.80
2022-12-05T11:37:04.522Z,2.80
2022-12-05T11:42:25.591Z,2.90
2022-12-05T11:47:36.810Z,2.80
2022-12-05T11:53:02.600Z,2.80
2022-12-05T11:58:29.979Z,2.90
2022-12-05T12:03:35.496Z,2.90
2022-12-05T12:08:53.986Z,2.80
2022-12-05T12:14:33.695Z,2.80
2022-12-05T12:20:02.624Z,2.90
2022-12-05T12:25:20.022Z,2.90
2022-12-05T12:30:28.799Z,2.90
2022-12-05T12:35:44.174Z,2.80
2022-12-05T12:40:58.749Z,2.90
2022-12-05T12:46:22.593Z,2.80
2022-12-05T12:51:25.236Z,2.80
2022-12-05T12:56:45.953Z,2.80
2022-12-05T13:02:03.569Z,2.90
2022-12-05T13:07:35.484Z,2.80
2022-12-05T13:12:39.992Z,2.90
2022-12-05T13:17:45.576Z,2.80
2022-12-05T13:22:51.765Z,2.80
2022-12-05T13:28:03.921Z,2.80
2022-12-05T13:33:09.963Z,2.80
2022-12-05T13:38:41.754Z,2.80
2022-12-05T13:44:04.949Z,2.70
2022-12-05T13:49:26.410Z,2.80
2022-12-05T13:54:31.013Z,2.80
2022-12-05T14:00:05.938Z,2.80
2022-12-05T14:05:25.619Z,2.70
2022-12-05T14:10:27.937Z,2.70
2022-12-05T14:15:39.468Z,2.80
2022-12-05T14:20:49.681Z,2.80
2022-12-05T14:26:32.467Z,2.70
2022-12-05T14:32:04.178Z,2.70
2022-12-05T14:37:14.601Z,2.70
2022-12-05T14:42:21.819Z,2.70
2022-12-05T14:47:28.756Z,2.70
2022-12-05T14:52:32.120Z,2.70
2022-12-05T14:57:41.475Z,2.90
2022-12-05T15:02:46.942Z,2.70
2022-12-05T15:07:51.113Z,2.70
2022-12-05T15:13:14.485Z,2.70
2022-12-05T15:18:35.071Z,2.70
2022-12-05T15:23:44.938Z,2.70
2022-12-05T15:29:08.051Z,2.80
2022-12-05T15:34:25.471Z,2.70
2022-12-05T15:39:28.704Z,2.80
2022-12-05T15:44:37.427Z,2.80
2022-12-05T15:49:40.583Z,2.80
2022-12-05T15:54:44.402Z,2.80
2022-12-05T16:00:13.090Z,2.80
2022-12-05T16:05:30.763Z,2.80
2022-12-05T16:10:34.593Z,2.80
2022-12-05T16:15:45.361Z,2.80
2022-12-05T16:20:50.271Z,2.80
2022-12-05T16:25:52.800Z,2.90
2022-12-05T16:31:03.531Z,2.80
2022-12-05T16:36:13.331Z,2.90
2022-12-05T16:41:17.146Z,2.80
2022-12-05T16:46:39.589Z,2.80
2022-12-05T16:51:45.014Z,2.80
2022-12-05T16:56:47.424Z,2.90
2022-12-05T17:01:49.933Z,2.90
2022-12-05T17:06:52.377Z,2.90
2022-12-05T17:12:05.977Z,2.90
2022-12-05T17:17:13.774Z,2.90
2022-12-05T17:22:16.870Z,3.00
2022-12-05T17:27:20.814Z,3.00
2022-12-05T17:32:24.001Z,2.90
2022-12-05T17:37:26.407Z,3.00
2022-12-05T17:42:28.890Z,3.00
2022-12-05T17:47:31.298Z,3.00
2022-12-05T17:52:33.961Z,3.00
2022-12-05T17:57:36.334Z,3.10
2022-12-05T18:02:38.918Z,3.00
2022-12-05T18:07:43.529Z,3.00
2022-12-05T18:12:46.819Z,3.00
2022-12-05T18:17:49.213Z,3.00
2022-12-05T18:22:51.601Z,3.00
2022-12-05T18:27:54.197Z,3.00
2022-12-05T18:32:56.600Z,3.00
2022-12-05T18:37:58.975Z,3.00
2022-12-05T18:43:01.481Z,3.00
2022-12-05T18:48:23.510Z,3.00
2022-12-05T18:53:26.535Z,3.00
2022-12-05T18:58:29.209Z,3.00
2022-12-05T19:03:33.065Z,3.00
2022-12-05T19:08:35.423Z,3.00
2022-12-05T19:13:37.835Z,3.00
2022-12-05T19:18:41.337Z,3.00
2022-12-05T19:23:43.751Z,3.00
2022-12-05T19:28:46.352Z,3.00
2022-12-05T19:33:51.659Z,3.00
2022-12-05T19:38:55.321Z,3.10
2022-12-05T19:44:01.708Z,3.10
2022-12-05T19:49:07.554Z,3.10
2022-12-05T19:54:12.054Z,3.20
2022-12-05T19:59:16.858Z,3.20
2022-12-05T20:04:19.257Z,3.40
2022-12-05T20:09:22.440Z,3.20
2022-12-05T20:14:25.952Z,3.20
2022-12-05T20:19:28.491Z,3.20
2022-12-05T20:24:30.857Z,3.20
2022-12-05T20:29:33.919Z,3.30
2022-12-05T20:34:36.295Z,3.30
2022-12-05T20:39:38.630Z,3.30
2022-12-05T20:44:41.003Z,3.30
2022-12-05T20:49:43.363Z,3.40
2022-12-05T20:54:46.147Z,3.40
2022-12-05T20:59:48.517Z,3.40
2022-12-05T21:04:50.971Z,3.40
2022-12-05T21:09:53.364Z,3.40
2022-12-05T21:14:56.974Z,3.40
2022-12-05T21:19:59.493Z,3.40
2022-12-05T21:25:02.214Z,3.40
2022-12-05T21:30:05.593Z,3.40
2022-12-05T21:35:08.631Z,3.40
2022-12-05T21:40:11.317Z,3.40
2022-12-05T21:45:13.786Z,3.40
2022-12-05T21:50:16.232Z,3.40
2022-12-05T21:55:18.645Z,3.40
2022-12-05T22:00:21.106Z,3.70
2022-12-05T22:05:23.440Z,3.40
2022-12-05T22:10:25.839Z,3.40
2022-12-05T22:15:28.302Z,3.40
2022-12-05T22:20:30.628Z,3.40
2022-12-05T22:25:33.421Z,3.40
2022-12-05T22:30:35.998Z,3.40
2022-12-05T22:35:38.428Z,3.70
2022-12-05T22:40:40.820Z,3.50
2022-12-05T22:45:43.214Z,3.50
2022-12-05T22:50:55.129Z,3.50
2022-12-05T22:56:14.930Z,3.50
2022-12-05T23:01:28.432Z,3.60
2022-12-05T23:06:32.695Z,3.60
2022-12-05T23:11:35.206Z,3.60
2022-12-05T23:16:37.678Z,3.80
2022-12-05T23:21:40.633Z,3.60
2022-12-05T23:26:45.437Z,3.70
2022-12-05T23:31:47.959Z,3.70
2022-12-05T23:36:52.957Z,3.70
2022-12-05T23:41:55.818Z,3.70
2022-12-05T23:46:58.199Z,3.70
2022-12-05T23:52:00.655Z,3.70
2022-12-05T23:57:03.138Z,3.70
